sensor_id;sensor_type;location;lat;lon;timestamp;P1;durP1;ratioP1;P2;durP2;ratioP2
1174;SDS011;576;48.418;10.074;2024-02-04T00:02:36;0.93;;;0.93;;
1174;SDS011;576;48.418;10.074;2024-02-04T00:05:05;0.90;;;0.90;;
1174;SDS011;576;48.418;10.074;2024-02-04T00:07:33;1.07;;;0.80;;
1174;SDS011;576;48.418;10.074;2024-02-04T00:10:03;1.00;;;0.83;;
1174;SDS011;576;48.418;10.074;2024-02-04T00:12:32;0.53;;;0.53;;
1174;SDS011;576;48.418;10.074;2024-02-04T00:15:00;0.80;;;0.80;;
1174;SDS011;576;48.418;10.074;2024-02-04T00:17:30;0.73;;;0.73;;
1174;SDS011;576;48.418;10.074;2024-02-04T00:20:00;0.60;;;0.60;;
1174;SDS011;576;48.418;10.074;2024-02-04T00:22:30;0.93;;;0.80;;
1174;SDS011;576;48.418;10.074;2024-02-04T00:24:58;0.60;;;0.57;;
1174;SDS011;576;48.418;10.074;2024-02-04T00:27:32;1.00;;;1.00;;
1174;SDS011;576;48.418;10.074;2024-02-04T00:30:01;1.23;;;0.60;;
1174;SDS011;576;48.418;10.074;2024-02-04T00:32:29;0.63;;;0.63;;
1174;SDS011;576;48.418;10.074;2024-02-04T00:34:58;0.80;;;0.80;;
1174;SDS011;576;48.418;10.074;2024-02-04T00:37:26;0.67;;;0.50;;
1174;SDS011;576;48.418;10.074;2024-02-04T00:39:54;0.70;;;0.70;;
1174;SDS011;576;48.418;10.074;2024-02-04T00:42:23;0.87;;;0.80;;
1174;SDS011;576;48.418;10.074;2024-02-04T00:44:52;0.67;;;0.67;;
1174;SDS011;576;48.418;10.074;2024-02-04T00:47:21;0.60;;;0.60;;
1174;SDS011;576;48.418;10.074;2024-02-04T00:49:49;0.90;;;0.90;;
1174;SDS011;576;48.418;10.074;2024-02-04T00:52:17;0.60;;;0.60;;
1174;SDS011;576;48.418;10.074;2024-02-04T00:54:45;0.83;;;0.83;;
1174;SDS011;576;48.418;10.074;2024-02-04T00:57:14;0.70;;;0.70;;
1174;SDS011;576;48.418;10.074;2024-02-04T00:59:42;0.50;;;0.50;;
1174;SDS011;576;48.418;10.074;2024-02-04T01:02:12;0.70;;;0.70;;
1174;SDS011;576;48.418;10.074;2024-02-04T01:04:40;0.70;;;0.67;;
1174;SDS011;576;48.418;10.074;2024-02-04T01:07:09;0.70;;;0.70;;
1174;SDS011;576;48.418;10.074;2024-02-04T01:09:37;0.80;;;0.80;;
1174;SDS011;576;48.418;10.074;2024-02-04T01:12:05;0.70;;;0.70;;
1174;SDS011;576;48.418;10.074;2024-02-04T01:14:35;0.60;;;0.60;;
1174;SDS011;576;48.418;10.074;2024-02-04T01:17:03;0.97;;;0.87;;
1174;SDS011;576;48.418;10.074;2024-02-04T01:19:33;0.90;;;0.90;;
1174;SDS011;576;48.418;10.074;2024-02-04T01:22:01;0.60;;;0.60;;
1174;SDS011;576;48.418;10.074;2024-02-04T01:24:30;0.80;;;0.80;;
1174;SDS011;576;48.418;10.074;2024-02-04T01:26:58;0.70;;;0.70;;
1174;SDS011;576;48.418;10.074;2024-02-04T01:29:26;0.60;;;0.60;;
1174;SDS011;576;48.418;10.074;2024-02-04T01:31:54;0.90;;;0.90;;
1174;SDS011;576;48.418;10.074;2024-02-04T01:34:23;0.50;;;0.50;;
1174;SDS011;576;48.418;10.074;2024-02-04T01:36:52;0.57;;;0.57;;
1174;SDS011;576;48.418;10.074;2024-02-04T01:39:21;0.80;;;0.80;;
1174;SDS011;576;48.418;10.074;2024-02-04T01:41:49;0.70;;;0.70;;
1174;SDS011;576;48.418;10.074;2024-02-04T01:44:18;0.60;;;0.60;;
1174;SDS011;576;48.418;10.074;2024-02-04T01:46:47;0.70;;;0.70;;
1174;SDS011;576;48.418;10.074;2024-02-04T01:49:16;0.70;;;0.70;;
1174;SDS011;576;48.418;10.074;2024-02-04T01:51:44;0.87;;;0.87;;
1174;SDS011;576;48.418;10.074;2024-02-04T01:54:14;0.80;;;0.80;;
1174;SDS011;576;48.418;10.074;2024-02-04T01:56:42;0.70;;;0.70;;
1174;SDS011;576;48.418;10.074;2024-02-04T01:59:13;0.97;;;0.77;;
1174;SDS011;576;48.418;10.074;2024-02-04T02:01:42;1.03;;;1.00;;
1174;SDS011;576;48.418;10.074;2024-02-04T02:04:11;0.90;;;0.90;;
1174;SDS011;576;48.418;10.074;2024-02-04T02:06:40;0.50;;;0.50;;
1174;SDS011;576;48.418;10.074;2024-02-04T02:09:10;0.90;;;0.90;;
1174;SDS011;576;48.418;10.074;2024-02-04T02:11:42;0.70;;;0.70;;
1174;SDS011;576;48.418;10.074;2024-02-04T02:14:16;0.67;;;0.67;;
1174;SDS011;576;48.418;10.074;2024-02-04T02:16:49;0.63;;;0.63;;
1174;SDS011;576;48.418;10.074;2024-02-04T02:19:27;0.70;;;0.70;;
1174;SDS011;576;48.418;10.074;2024-02-04T02:22:11;0.70;;;0.70;;
1174;SDS011;576;48.418;10.074;2024-02-04T02:24:50;0.80;;;0.80;;
1174;SDS011;576;48.418;10.074;2024-02-04T02:27:19;1.40;;;1.00;;
1174;SDS011;576;48.418;10.074;2024-02-04T02:29:47;0.60;;;0.60;;
1174;SDS011;576;48.418;10.074;2024-02-04T02:32:17;0.80;;;0.80;;
1174;SDS011;576;48.418;10.074;2024-02-04T02:34:46;0.70;;;0.70;;
1174;SDS011;576;48.418;10.074;2024-02-04T02:37:25;1.00;;;1.00;;
1174;SDS011;576;48.418;10.074;2024-02-04T02:40:01;0.70;;;0.70;;
1174;SDS011;576;48.418;10.074;2024-02-04T02:42:34;0.60;;;0.60;;
1174;SDS011;576;48.418;10.074;2024-02-04T02:45:04;1.00;;;0.90;;
1174;SDS011;576;48.418;10.074;2024-02-04T02:47:34;1.00;;;0.90;;
1174;SDS011;576;48.418;10.074;2024-02-04T02:50:04;0.60;;;0.60;;
1174;SDS011;576;48.418;10.074;2024-02-04T02:52:33;0.70;;;0.70;;
1174;SDS011;576;48.418;10.074;2024-02-04T02:55:03;0.93;;;0.93;;
1174;SDS011;576;48.418;10.074;2024-02-04T02:57:32;1.20;;;1.17;;
1174;SDS011;576;48.418;10.074;2024-02-04T03:00:01;1.60;;;1.13;;
1174;SDS011;576;48.418;10.074;2024-02-04T03:02:30;1.00;;;1.00;;
1174;SDS011;576;48.418;10.074;2024-02-04T03:04:58;0.87;;;0.80;;
1174;SDS011;576;48.418;10.074;2024-02-04T03:07:26;1.00;;;1.00;;
1174;SDS011;576;48.418;10.074;2024-02-04T03:09:55;1.13;;;1.00;;
1174;SDS011;576;48.418;10.074;2024-02-04T03:12:24;0.90;;;0.90;;
1174;SDS011;576;48.418;10.074;2024-02-04T03:14:53;1.03;;;1.03;;
1174;SDS011;576;48.418;10.074;2024-02-04T03:17:21;0.90;;;0.90;;
1174;SDS011;576;48.418;10.074;2024-02-04T03:19:51;0.87;;;0.87;;
1174;SDS011;576;48.418;10.074;2024-02-04T03:22:21;1.03;;;1.03;;
1174;SDS011;576;48.418;10.074;2024-02-04T03:24:50;1.00;;;1.00;;
1174;SDS011;576;48.418;10.074;2024-02-04T03:27:19;1.03;;;1.03;;
1174;SDS011;576;48.418;10.074;2024-02-04T03:29:49;1.20;;;1.20;;
1174;SDS011;576;48.418;10.074;2024-02-04T03:32:17;2.07;;;1.97;;
1174;SDS011;576;48.418;10.074;2024-02-04T03:34:46;0.87;;;0.87;;
1174;SDS011;576;48.418;10.074;2024-02-04T03:37:15;1.30;;;1.20;;
1174;SDS011;576;48.418;10.074;2024-02-04T03:39:43;1.10;;;1.00;;
1174;SDS011;576;48.418;10.074;2024-02-04T03:42:11;1.00;;;1.00;;
1174;SDS011;576;48.418;10.074;2024-02-04T03:44:39;1.07;;;1.00;;
1174;SDS011;576;48.418;10.074;2024-02-04T03:47:09;1.40;;;1.30;;
1174;SDS011;576;48.418;10.074;2024-02-04T03:49:37;0.87;;;0.87;;
1174;SDS011;576;48.418;10.074;2024-02-04T03:52:05;1.07;;;1.00;;
1174;SDS011;576;48.418;10.074;2024-02-04T03:54:34;1.40;;;1.30;;
1174;SDS011;576;48.418;10.074;2024-02-04T03:57:03;1.40;;;1.30;;
1174;SDS011;576;48.418;10.074;2024-02-04T03:59:32;0.80;;;0.80;;
1174;SDS011;576;48.418;10.074;2024-02-04T04:02:01;1.47;;;1.37;;
1174;SDS011;576;48.418;10.074;2024-02-04T04:04:30;3.80;;;0.90;;
1174;SDS011;576;48.418;10.074;2024-02-04T04:06:59;1.00;;;1.00;;
1174;SDS011;576;48.418;10.074;2024-02-04T04:09:28;1.10;;;1.10;;
1174;SDS011;576;48.418;10.074;2024-02-04T04:11:56;1.47;;;1.20;;
1174;SDS011;576;48.418;10.074;2024-02-04T04:14:24;0.90;;;0.90;;
1174;SDS011;576;48.418;10.074;2024-02-04T04:16:53;1.20;;;1.20;;
1174;SDS011;576;48.418;10.074;2024-02-04T04:19:21;1.27;;;1.17;;
1174;SDS011;576;48.418;10.074;2024-02-04T04:21:52;1.27;;;1.17;;
1174;SDS011;576;48.418;10.074;2024-02-04T04:24:21;1.60;;;1.50;;
1174;SDS011;576;48.418;10.074;2024-02-04T04:26:49;1.53;;;1.43;;
1174;SDS011;576;48.418;10.074;2024-02-04T04:29:17;1.27;;;1.17;;
1174;SDS011;576;48.418;10.074;2024-02-04T04:31:45;1.47;;;1.37;;
1174;SDS011;576;48.418;10.074;2024-02-04T04:34:14;0.97;;;0.90;;
1174;SDS011;576;48.418;10.074;2024-02-04T04:36:45;1.50;;;1.40;;
1174;SDS011;576;48.418;10.074;2024-02-04T04:39:14;1.00;;;1.00;;
1174;SDS011;576;48.418;10.074;2024-02-04T04:41:43;1.50;;;1.40;;
1174;SDS011;576;48.418;10.074;2024-02-04T04:44:12;1.20;;;1.20;;
1174;SDS011;576;48.418;10.074;2024-02-04T04:46:40;1.50;;;1.40;;
1174;SDS011;576;48.418;10.074;2024-02-04T04:49:09;1.30;;;1.20;;
1174;SDS011;576;48.418;10.074;2024-02-04T04:51:37;1.13;;;1.07;;
1174;SDS011;576;48.418;10.074;2024-02-04T04:54:05;1.20;;;1.10;;
1174;SDS011;576;48.418;10.074;2024-02-04T04:56:38;1.53;;;1.40;;
1174;SDS011;576;48.418;10.074;2024-02-04T04:59:08;1.70;;;1.60;;
1174;SDS011;576;48.418;10.074;2024-02-04T05:01:37;0.93;;;0.93;;
1174;SDS011;576;48.418;10.074;2024-02-04T05:04:08;1.33;;;1.23;;
1174;SDS011;576;48.418;10.074;2024-02-04T05:06:36;0.97;;;0.97;;
1174;SDS011;576;48.418;10.074;2024-02-04T05:09:05;1.30;;;1.20;;
1174;SDS011;576;48.418;10.074;2024-02-04T05:11:33;1.30;;;1.27;;
1174;SDS011;576;48.418;10.074;2024-02-04T05:14:03;1.43;;;1.33;;
1174;SDS011;576;48.418;10.074;2024-02-04T05:16:31;1.60;;;1.50;;
1174;SDS011;576;48.418;10.074;2024-02-04T05:19:00;1.60;;;1.50;;
1174;SDS011;576;48.418;10.074;2024-02-04T05:21:28;1.50;;;1.40;;
1174;SDS011;576;48.418;10.074;2024-02-04T05:23:56;1.57;;;1.47;;
1174;SDS011;576;48.418;10.074;2024-02-04T05:26:24;1.33;;;1.23;;
1174;SDS011;576;48.418;10.074;2024-02-04T05:28:53;1.40;;;1.30;;
1174;SDS011;576;48.418;10.074;2024-02-04T05:31:22;1.47;;;1.37;;
1174;SDS011;576;48.418;10.074;2024-02-04T05:33:51;1.87;;;1.57;;
1174;SDS011;576;48.418;10.074;2024-02-04T05:36:20;1.70;;;1.60;;
1174;SDS011;576;48.418;10.074;2024-02-04T05:38:49;1.60;;;1.50;;
1174;SDS011;576;48.418;10.074;2024-02-04T05:41:17;2.70;;;1.60;;
1174;SDS011;576;48.418;10.074;2024-02-04T05:43:45;1.50;;;1.40;;
1174;SDS011;576;48.418;10.074;2024-02-04T05:46:13;1.73;;;1.63;;
1174;SDS011;576;48.418;10.074;2024-02-04T05:48:43;1.80;;;1.70;;
1174;SDS011;576;48.418;10.074;2024-02-04T05:51:12;1.20;;;1.20;;
1174;SDS011;576;48.418;10.074;2024-02-04T05:53:40;1.30;;;1.20;;
1174;SDS011;576;48.418;10.074;2024-02-04T05:56:09;1.50;;;1.40;;
1174;SDS011;576;48.418;10.074;2024-02-04T05:58:37;1.63;;;1.53;;
1174;SDS011;576;48.418;10.074;2024-02-04T06:01:05;1.60;;;1.50;;
1174;SDS011;576;48.418;10.074;2024-02-04T06:03:34;1.80;;;1.70;;
1174;SDS011;576;48.418;10.074;2024-02-04T06:06:04;1.50;;;1.40;;
1174;SDS011;576;48.418;10.074;2024-02-04T06:08:33;1.83;;;1.73;;
1174;SDS011;576;48.418;10.074;2024-02-04T06:11:01;1.77;;;1.27;;
1174;SDS011;576;48.418;10.074;2024-02-04T06:13:29;3.03;;;2.00;;
1174;SDS011;576;48.418;10.074;2024-02-04T06:15:57;1.50;;;1.40;;
1174;SDS011;576;48.418;10.074;2024-02-04T06:18:26;1.50;;;1.40;;
1174;SDS011;576;48.418;10.074;2024-02-04T06:20:54;1.50;;;1.40;;
1174;SDS011;576;48.418;10.074;2024-02-04T06:23:24;1.83;;;1.73;;
1174;SDS011;576;48.418;10.074;2024-02-04T06:25:52;1.83;;;1.70;;
1174;SDS011;576;48.418;10.074;2024-02-04T06:28:20;1.80;;;1.70;;
1174;SDS011;576;48.418;10.074;2024-02-04T06:30:49;1.90;;;1.80;;
1174;SDS011;576;48.418;10.074;2024-02-04T06:33:17;1.70;;;1.60;;
1174;SDS011;576;48.418;10.074;2024-02-04T06:35:46;1.97;;;1.87;;
1174;SDS011;576;48.418;10.074;2024-02-04T06:38:14;1.47;;;1.37;;
1174;SDS011;576;48.418;10.074;2024-02-04T06:40:44;2.00;;;1.80;;
1174;SDS011;576;48.418;10.074;2024-02-04T06:43:12;1.67;;;1.57;;
1174;SDS011;576;48.418;10.074;2024-02-04T06:45:40;2.20;;;1.60;;
1174;SDS011;576;48.418;10.074;2024-02-04T06:48:08;2.63;;;1.60;;
1174;SDS011;576;48.418;10.074;2024-02-04T06:50:37;1.97;;;1.70;;
1174;SDS011;576;48.418;10.074;2024-02-04T06:53:05;2.60;;;2.07;;
1174;SDS011;576;48.418;10.074;2024-02-04T06:55:33;1.50;;;1.40;;
1174;SDS011;576;48.418;10.074;2024-02-04T06:58:03;1.93;;;1.83;;
1174;SDS011;576;48.418;10.074;2024-02-04T07:00:32;1.70;;;1.37;;
1174;SDS011;576;48.418;10.074;2024-02-04T07:03:00;1.50;;;1.40;;
1174;SDS011;576;48.418;10.074;2024-02-04T07:05:29;1.27;;;1.27;;
1174;SDS011;576;48.418;10.074;2024-02-04T07:07:57;2.17;;;1.70;;
1174;SDS011;576;48.418;10.074;2024-02-04T07:10:25;1.60;;;1.50;;
1174;SDS011;576;48.418;10.074;2024-02-04T07:12:54;1.00;;;1.00;;
1174;SDS011;576;48.418;10.074;2024-02-04T07:15:23;1.30;;;1.20;;
1174;SDS011;576;48.418;10.074;2024-02-04T07:17:52;1.40;;;1.30;;
1174;SDS011;576;48.418;10.074;2024-02-04T07:20:20;2.10;;;1.40;;
1174;SDS011;576;48.418;10.074;2024-02-04T07:22:48;1.70;;;1.60;;
1174;SDS011;576;48.418;10.074;2024-02-04T07:25:17;2.10;;;1.60;;
1174;SDS011;576;48.418;10.074;2024-02-04T07:27:45;1.60;;;1.50;;
1174;SDS011;576;48.418;10.074;2024-02-04T07:30:13;1.50;;;1.40;;
1174;SDS011;576;48.418;10.074;2024-02-04T07:32:43;1.33;;;1.23;;
1174;SDS011;576;48.418;10.074;2024-02-04T07:35:12;2.47;;;2.27;;
1174;SDS011;576;48.418;10.074;2024-02-04T07:37:40;1.63;;;1.53;;
1174;SDS011;576;48.418;10.074;2024-02-04T07:40:09;1.80;;;1.70;;
1174;SDS011;576;48.418;10.074;2024-02-04T07:42:37;1.30;;;1.20;;
1174;SDS011;576;48.418;10.074;2024-02-04T07:45:06;1.60;;;1.50;;
1174;SDS011;576;48.418;10.074;2024-02-04T07:47:36;1.90;;;1.80;;
1174;SDS011;576;48.418;10.074;2024-02-04T07:50:07;2.33;;;1.80;;
1174;SDS011;576;48.418;10.074;2024-02-04T07:52:36;1.57;;;1.47;;
1174;SDS011;576;48.418;10.074;2024-02-04T07:55:08;2.00;;;1.90;;
1174;SDS011;576;48.418;10.074;2024-02-04T07:57:36;1.93;;;1.83;;
1174;SDS011;576;48.418;10.074;2024-02-04T08:00:05;1.83;;;1.73;;
1174;SDS011;576;48.418;10.074;2024-02-04T08:02:39;2.07;;;1.73;;
1174;SDS011;576;48.418;10.074;2024-02-04T08:05:09;1.43;;;1.33;;
1174;SDS011;576;48.418;10.074;2024-02-04T08:07:37;1.77;;;1.67;;
1174;SDS011;576;48.418;10.074;2024-02-04T08:10:08;1.80;;;1.40;;
1174;SDS011;576;48.418;10.074;2024-02-04T08:12:36;1.47;;;1.37;;
1174;SDS011;576;48.418;10.074;2024-02-04T08:15:05;1.80;;;1.70;;
1174;SDS011;576;48.418;10.074;2024-02-04T08:17:34;1.47;;;1.37;;
1174;SDS011;576;48.418;10.074;2024-02-04T08:20:03;1.60;;;1.50;;
1174;SDS011;576;48.418;10.074;2024-02-04T08:22:33;2.10;;;2.00;;
1174;SDS011;576;48.418;10.074;2024-02-04T08:25:01;2.07;;;1.83;;
1174;SDS011;576;48.418;10.074;2024-02-04T08:27:30;1.27;;;1.27;;
1174;SDS011;576;48.418;10.074;2024-02-04T08:29:58;1.63;;;1.53;;
1174;SDS011;576;48.418;10.074;2024-02-04T08:32:27;1.90;;;1.77;;
1174;SDS011;576;48.418;10.074;2024-02-04T08:34:55;1.80;;;1.70;;
1174;SDS011;576;48.418;10.074;2024-02-04T08:37:24;2.43;;;1.77;;
1174;SDS011;576;48.418;10.074;2024-02-04T08:39:55;1.60;;;1.50;;
1174;SDS011;576;48.418;10.074;2024-02-04T08:42:24;3.30;;;1.50;;
1174;SDS011;576;48.418;10.074;2024-02-04T08:44:52;1.53;;;1.43;;
1174;SDS011;576;48.418;10.074;2024-02-04T08:47:20;2.80;;;2.20;;
1174;SDS011;576;48.418;10.074;2024-02-04T08:49:48;4.53;;;1.40;;
1174;SDS011;576;48.418;10.074;2024-02-04T08:52:17;1.53;;;1.43;;
1174;SDS011;576;48.418;10.074;2024-02-04T08:54:45;1.43;;;1.33;;
1174;SDS011;576;48.418;10.074;2024-02-04T08:57:15;1.77;;;1.60;;
1174;SDS011;576;48.418;10.074;2024-02-04T08:59:44;2.70;;;1.20;;
1174;SDS011;576;48.418;10.074;2024-02-04T09:02:12;1.63;;;1.53;;
1174;SDS011;576;48.418;10.074;2024-02-04T09:04:40;1.40;;;1.27;;
1174;SDS011;576;48.418;10.074;2024-02-04T09:07:09;1.97;;;1.87;;
1174;SDS011;576;48.418;10.074;2024-02-04T09:09:37;1.50;;;1.40;;
1174;SDS011;576;48.418;10.074;2024-02-04T09:12:07;1.70;;;1.60;;
1174;SDS011;576;48.418;10.074;2024-02-04T09:14:38;2.37;;;2.17;;
1174;SDS011;576;48.418;10.074;2024-02-04T09:17:06;2.70;;;1.60;;
1174;SDS011;576;48.418;10.074;2024-02-04T09:19:36;1.67;;;1.57;;
1174;SDS011;576;48.418;10.074;2024-02-04T09:22:08;1.60;;;1.50;;
1174;SDS011;576;48.418;10.074;2024-02-04T09:24:37;1.40;;;1.30;;
1174;SDS011;576;48.418;10.074;2024-02-04T09:27:05;2.10;;;1.87;;
1174;SDS011;576;48.418;10.074;2024-02-04T09:29:33;3.10;;;1.50;;
1174;SDS011;576;48.418;10.074;2024-02-04T09:32:03;1.67;;;1.30;;
1174;SDS011;576;48.418;10.074;2024-02-04T09:34:32;3.40;;;1.30;;
1174;SDS011;576;48.418;10.074;2024-02-04T09:37:01;2.63;;;1.93;;
1174;SDS011;576;48.418;10.074;2024-02-04T09:39:30;1.80;;;1.53;;
1174;SDS011;576;48.418;10.074;2024-02-04T09:41:58;1.70;;;1.60;;
1174;SDS011;576;48.418;10.074;2024-02-04T09:44:27;1.53;;;1.43;;
1174;SDS011;576;48.418;10.074;2024-02-04T09:46:55;2.33;;;1.77;;
1174;SDS011;576;48.418;10.074;2024-02-04T09:49:27;2.77;;;1.60;;
1174;SDS011;576;48.418;10.074;2024-02-04T09:51:59;3.73;;;2.00;;
1174;SDS011;576;48.418;10.074;2024-02-04T09:54:34;1.30;;;1.20;;
1174;SDS011;576;48.418;10.074;2024-02-04T09:57:06;1.93;;;1.60;;
1174;SDS011;576;48.418;10.074;2024-02-04T09:59:35;2.80;;;1.30;;
1174;SDS011;576;48.418;10.074;2024-02-04T10:02:03;2.00;;;1.47;;
1174;SDS011;576;48.418;10.074;2024-02-04T10:04:33;1.73;;;1.60;;
1174;SDS011;576;48.418;10.074;2024-02-04T10:07:02;3.00;;;1.57;;
1174;SDS011;576;48.418;10.074;2024-02-04T10:09:31;1.37;;;1.27;;
1174;SDS011;576;48.418;10.074;2024-02-04T10:12:00;3.80;;;1.53;;
1174;SDS011;576;48.418;10.074;2024-02-04T10:14:29;1.47;;;1.37;;
1174;SDS011;576;48.418;10.074;2024-02-04T10:16:58;2.10;;;1.20;;
1174;SDS011;576;48.418;10.074;2024-02-04T10:19:26;1.37;;;1.27;;
1174;SDS011;576;48.418;10.074;2024-02-04T10:22:00;2.87;;;1.33;;
1174;SDS011;576;48.418;10.074;2024-02-04T10:24:29;2.60;;;1.17;;
1174;SDS011;576;48.418;10.074;2024-02-04T10:26:58;1.97;;;1.73;;
1174;SDS011;576;48.418;10.074;2024-02-04T10:33:26;2.10;;;1.90;;
1174;SDS011;576;48.418;10.074;2024-02-04T10:35:57;2.10;;;1.40;;
1174;SDS011;576;48.418;10.074;2024-02-04T10:38:27;2.80;;;1.60;;
1174;SDS011;576;48.418;10.074;2024-02-04T10:40:55;1.60;;;1.30;;
1174;SDS011;576;48.418;10.074;2024-02-04T10:43:29;2.97;;;1.23;;
1174;SDS011;576;48.418;10.074;2024-02-04T10:46:01;1.80;;;1.70;;
1174;SDS011;576;48.418;10.074;2024-02-04T10:48:36;4.03;;;1.37;;
1174;SDS011;576;48.418;10.074;2024-02-04T10:51:16;1.37;;;1.27;;
1174;SDS011;576;48.418;10.074;2024-02-04T10:53:50;1.40;;;1.30;;
1174;SDS011;576;48.418;10.074;2024-02-04T10:56:22;1.33;;;1.23;;
1174;SDS011;576;48.418;10.074;2024-02-04T10:58:57;1.37;;;1.10;;
1174;SDS011;576;48.418;10.074;2024-02-04T11:01:29;1.93;;;1.43;;
1174;SDS011;576;48.418;10.074;2024-02-04T11:03:58;1.83;;;1.30;;
1174;SDS011;576;48.418;10.074;2024-02-04T11:06:28;1.53;;;1.43;;
1174;SDS011;576;48.418;10.074;2024-02-04T11:09:00;1.53;;;1.43;;
1174;SDS011;576;48.418;10.074;2024-02-04T11:11:29;3.57;;;1.40;;
1174;SDS011;576;48.418;10.074;2024-02-04T11:13:58;2.33;;;1.50;;
1174;SDS011;576;48.418;10.074;2024-02-04T11:16:37;1.10;;;1.10;;
1174;SDS011;576;48.418;10.074;2024-02-04T11:19:20;2.80;;;1.30;;
1174;SDS011;576;48.418;10.074;2024-02-04T11:22:04;1.40;;;1.30;;
1174;SDS011;576;48.418;10.074;2024-02-04T11:24:53;2.80;;;1.40;;
1174;SDS011;576;48.418;10.074;2024-02-04T11:27:30;1.80;;;1.07;;
1174;SDS011;576;48.418;10.074;2024-02-04T11:29:58;2.53;;;1.30;;
1174;SDS011;576;48.418;10.074;2024-02-04T11:32:27;2.80;;;1.43;;
1174;SDS011;576;48.418;10.074;2024-02-04T11:34:56;1.10;;;1.00;;
1174;SDS011;576;48.418;10.074;2024-02-04T11:37:29;1.43;;;1.10;;
1174;SDS011;576;48.418;10.074;2024-02-04T11:40:03;1.43;;;1.10;;
1174;SDS011;576;48.418;10.074;2024-02-04T11:42:32;1.17;;;1.07;;
1174;SDS011;576;48.418;10.074;2024-02-04T11:45:07;1.90;;;1.10;;
1174;SDS011;576;48.418;10.074;2024-02-04T11:47:36;1.40;;;1.23;;
1174;SDS011;576;48.418;10.074;2024-02-04T11:50:05;1.27;;;1.17;;
1174;SDS011;576;48.418;10.074;2024-02-04T11:52:36;1.53;;;1.23;;
1174;SDS011;576;48.418;10.074;2024-02-04T11:55:12;1.30;;;1.20;;
1174;SDS011;576;48.418;10.074;2024-02-04T11:57:42;1.40;;;1.33;;
1174;SDS011;576;48.418;10.074;2024-02-04T12:00:11;2.40;;;1.20;;
1174;SDS011;576;48.418;10.074;2024-02-04T12:02:40;1.50;;;0.97;;
1174;SDS011;576;48.418;10.074;2024-02-04T12:05:09;2.27;;;1.30;;
1174;SDS011;576;48.418;10.074;2024-02-04T12:07:38;1.43;;;1.13;;
1174;SDS011;576;48.418;10.074;2024-02-04T12:10:11;1.20;;;1.10;;
1174;SDS011;576;48.418;10.074;2024-02-04T12:12:40;3.03;;;1.20;;
1174;SDS011;576;48.418;10.074;2024-02-04T12:15:08;3.50;;;1.37;;
1174;SDS011;576;48.418;10.074;2024-02-04T12:17:38;2.00;;;1.20;;
1174;SDS011;576;48.418;10.074;2024-02-04T12:20:06;1.20;;;1.10;;
1174;SDS011;576;48.418;10.074;2024-02-04T12:22:35;1.27;;;0.80;;
1174;SDS011;576;48.418;10.074;2024-02-04T12:25:04;0.93;;;0.93;;
1174;SDS011;576;48.418;10.074;2024-02-04T12:27:35;2.00;;;0.80;;
1174;SDS011;576;48.418;10.074;2024-02-04T12:30:04;3.20;;;0.90;;
1174;SDS011;576;48.418;10.074;2024-02-04T12:32:33;1.53;;;1.43;;
1174;SDS011;576;48.418;10.074;2024-02-04T12:35:05;1.50;;;1.10;;
1174;SDS011;576;48.418;10.074;2024-02-04T12:37:35;1.23;;;1.13;;
1174;SDS011;576;48.418;10.074;2024-02-04T12:40:04;1.10;;;1.00;;
1174;SDS011;576;48.418;10.074;2024-02-04T12:42:33;5.57;;;1.10;;
1174;SDS011;576;48.418;10.074;2024-02-04T12:45:04;2.37;;;1.13;;
1174;SDS011;576;48.418;10.074;2024-02-04T12:47:32;1.23;;;0.90;;
1174;SDS011;576;48.418;10.074;2024-02-04T12:50:01;2.03;;;0.93;;
1174;SDS011;576;48.418;10.074;2024-02-04T12:52:29;1.90;;;1.20;;
1174;SDS011;576;48.418;10.074;2024-02-04T12:55:01;0.90;;;0.90;;
1174;SDS011;576;48.418;10.074;2024-02-04T12:57:31;2.20;;;1.17;;
1174;SDS011;576;48.418;10.074;2024-02-04T13:00:05;1.60;;;1.50;;
1174;SDS011;576;48.418;10.074;2024-02-04T13:02:35;5.97;;;1.33;;
1174;SDS011;576;48.418;10.074;2024-02-04T13:05:03;2.30;;;1.27;;
1174;SDS011;576;48.418;10.074;2024-02-04T13:07:32;4.87;;;1.73;;
1174;SDS011;576;48.418;10.074;2024-02-04T13:10:00;1.93;;;1.20;;
1174;SDS011;576;48.418;10.074;2024-02-04T13:12:29;6.90;;;1.90;;
1174;SDS011;576;48.418;10.074;2024-02-04T13:14:59;3.00;;;1.43;;
1174;SDS011;576;48.418;10.074;2024-02-04T13:17:29;4.10;;;1.43;;
1174;SDS011;576;48.418;10.074;2024-02-04T13:19:58;2.77;;;1.50;;
1174;SDS011;576;48.418;10.074;2024-02-04T13:22:26;2.77;;;1.20;;
1174;SDS011;576;48.418;10.074;2024-02-04T13:24:55;7.50;;;1.60;;
1174;SDS011;576;48.418;10.074;2024-02-04T13:27:23;2.90;;;1.30;;
1174;SDS011;576;48.418;10.074;2024-02-04T13:29:51;4.00;;;1.50;;
1174;SDS011;576;48.418;10.074;2024-02-04T13:32:19;2.30;;;1.20;;
1174;SDS011;576;48.418;10.074;2024-02-04T13:34:49;3.00;;;1.00;;
1174;SDS011;576;48.418;10.074;2024-02-04T13:37:31;3.17;;;1.30;;
1174;SDS011;576;48.418;10.074;2024-02-04T13:39:59;4.20;;;1.50;;
1174;SDS011;576;48.418;10.074;2024-02-04T13:42:27;3.90;;;1.97;;
1174;SDS011;576;48.418;10.074;2024-02-04T13:44:56;4.30;;;2.17;;
1174;SDS011;576;48.418;10.074;2024-02-04T13:47:24;4.20;;;1.47;;
1174;SDS011;576;48.418;10.074;2024-02-04T13:49:54;3.53;;;1.70;;
1174;SDS011;576;48.418;10.074;2024-02-04T13:52:26;5.10;;;1.53;;
1174;SDS011;576;48.418;10.074;2024-02-04T13:54:54;3.30;;;1.30;;
1174;SDS011;576;48.418;10.074;2024-02-04T13:57:23;2.43;;;1.50;;
1174;SDS011;576;48.418;10.074;2024-02-04T13:59:51;3.33;;;1.20;;
1174;SDS011;576;48.418;10.074;2024-02-04T14:02:19;5.30;;;1.30;;
1174;SDS011;576;48.418;10.074;2024-02-04T14:04:50;1.73;;;1.40;;
1174;SDS011;576;48.418;10.074;2024-02-04T14:07:20;1.93;;;1.40;;
1174;SDS011;576;48.418;10.074;2024-02-04T14:09:48;4.63;;;1.37;;
1174;SDS011;576;48.418;10.074;2024-02-04T14:12:17;3.47;;;1.70;;
1174;SDS011;576;48.418;10.074;2024-02-04T14:14:45;5.63;;;1.87;;
1174;SDS011;576;48.418;10.074;2024-02-04T14:17:14;2.00;;;1.20;;
1174;SDS011;576;48.418;10.074;2024-02-04T14:19:42;3.00;;;1.30;;
1174;SDS011;576;48.418;10.074;2024-02-04T14:22:15;3.77;;;1.10;;
1174;SDS011;576;48.418;10.074;2024-02-04T14:24:46;2.10;;;1.87;;
1174;SDS011;576;48.418;10.074;2024-02-04T14:27:14;2.20;;;1.20;;
1174;SDS011;576;48.418;10.074;2024-02-04T14:29:42;2.23;;;1.37;;
1174;SDS011;576;48.418;10.074;2024-02-04T14:32:11;9.57;;;2.00;;
1174;SDS011;576;48.418;10.074;2024-02-04T14:34:39;3.80;;;1.40;;
1174;SDS011;576;48.418;10.074;2024-02-04T14:37:08;1.63;;;0.90;;
1174;SDS011;576;48.418;10.074;2024-02-04T14:39:40;2.93;;;1.10;;
1174;SDS011;576;48.418;10.074;2024-02-04T14:42:10;1.83;;;1.03;;
1174;SDS011;576;48.418;10.074;2024-02-04T14:44:38;1.10;;;1.00;;
1174;SDS011;576;48.418;10.074;2024-02-04T14:47:07;1.20;;;0.90;;
1174;SDS011;576;48.418;10.074;2024-02-04T14:49:35;0.70;;;0.70;;
1174;SDS011;576;48.418;10.074;2024-02-04T14:52:04;1.03;;;0.97;;
1174;SDS011;576;48.418;10.074;2024-02-04T14:54:33;5.93;;;1.30;;
1174;SDS011;576;48.418;10.074;2024-02-04T14:57:01;3.13;;;1.43;;
1174;SDS011;576;48.418;10.074;2024-02-04T14:59:31;1.90;;;1.20;;
1174;SDS011;576;48.418;10.074;2024-02-04T15:02:03;2.30;;;0.90;;
1174;SDS011;576;48.418;10.074;2024-02-04T15:04:33;2.73;;;1.13;;
1174;SDS011;576;48.418;10.074;2024-02-04T15:07:02;3.00;;;1.30;;
1174;SDS011;576;48.418;10.074;2024-02-04T15:09:31;1.33;;;1.00;;
1174;SDS011;576;48.418;10.074;2024-02-04T15:11:59;1.70;;;1.07;;
1174;SDS011;576;48.418;10.074;2024-02-04T15:14:28;10.30;;;1.90;;
1174;SDS011;576;48.418;10.074;2024-02-04T15:16:59;4.20;;;1.13;;
1174;SDS011;576;48.418;10.074;2024-02-04T15:19:28;2.93;;;0.80;;
1174;SDS011;576;48.418;10.074;2024-02-04T15:21:59;1.90;;;0.90;;
1174;SDS011;576;48.418;10.074;2024-02-04T15:24:28;1.57;;;1.13;;
1174;SDS011;576;48.418;10.074;2024-02-04T15:26:57;3.20;;;1.10;;
1174;SDS011;576;48.418;10.074;2024-02-04T15:29:31;0.70;;;0.70;;
1174;SDS011;576;48.418;10.074;2024-02-04T15:32:04;2.20;;;1.10;;
1174;SDS011;576;48.418;10.074;2024-02-04T15:34:33;1.00;;;0.80;;